createdAt,value
2022-12-18T00:09:05.344Z,103047.00
2022-12-18T00:19:28.967Z,103049.00
2022-12-18T00:29:50.890Z,103058.00
2022-12-18T00:40:14.520Z,103053.00
2022-12-18T00:50:36.463Z,103040.00
2022-12-18T01:00:59.583Z,103029.00
2022-12-18T01:11:23.222Z,103039.00
2022-12-18T01:21:45.910Z,103047.00
2022-12-18T01:32:08.508Z,103066.00
2022-12-18T01:42:32.083Z,103072.00
2022-12-18T01:52:57.493Z,103069.00
2022-12-18T02:03:20.623Z,103072.00
2022-12-18T02:13:48.661Z,103079.00
2022-12-18T02:24:25.985Z,103093.00
2022-12-18T02:34:50.225Z,103093.00
2022-12-18T02:45:12.499Z,103101.00
2022-12-18T02:55:46.782Z,103117.00
2022-12-18T03:06:16.099Z,103108.00
2022-12-18T03:16:43.144Z,103106.00
2022-12-18T03:27:09.098Z,103111.00
2022-12-18T03:37:32.478Z,103134.00
2022-12-18T03:48:03.219Z,103123.00
2022-12-18T03:58:33.683Z,103135.00
2022-12-18T04:09:11.132Z,103114.00
2022-12-18T04:19:38.661Z,103111.00
2022-12-18T04:30:00.449Z,103123.00
2022-12-18T04:40:23.790Z,103148.00
2022-12-18T04:50:45.527Z,103138.00
2022-12-18T05:01:09.476Z,103147.00
2022-12-18T05:11:30.794Z,103145.00
2022-12-18T05:21:53.979Z,103162.00
2022-12-18T05:32:15.436Z,103169.00
2022-12-18T05:42:38.673Z,103185.00
2022-12-18T05:53:00.127Z,103197.00
2022-12-18T06:03:23.119Z,103183.00
2022-12-18T06:13:44.605Z,103209.00
2022-12-18T06:24:08.259Z,103217.00
2022-12-18T06:34:29.669Z,103231.00
2022-12-18T06:44:52.547Z,103235.00
2022-12-18T06:55:13.870Z,103242.00
2022-12-18T07:05:41.993Z,103266.00
2022-12-18T07:16:15.982Z,103252.00
2022-12-18T07:26:41.293Z,103260.00
2022-12-18T07:37:02.862Z,103263.00
2022-12-18T07:47:25.839Z,103256.00
2022-12-18T07:57:51.453Z,103271.00
2022-12-18T08:08:16.455Z,103262.00
2022-12-18T08:18:39.387Z,103274.00
2022-12-18T08:29:02.241Z,103266.00
2022-12-18T08:39:23.876Z,103268.00
2022-12-18T08:49:47.117Z,103281.00
2022-12-18T09:00:10.050Z,103305.00
2022-12-18T09:10:33.046Z,103321.00
2022-12-18T09:20:55.974Z,103314.00
2022-12-18T09:31:21.576Z,103323.00
2022-12-18T09:41:48.138Z,103324.00
2022-12-18T09:52:17.843Z,103298.00
2022-12-18T10:02:39.419Z,103276.00
2022-12-18T10:13:10.483Z,103245.00
2022-12-18T10:23:43.670Z,103250.00
2022-12-18T10:34:13.371Z,103261.00
2022-12-18T10:44:35.140Z,103250.00
2022-12-18T10:55:02.507Z,103233.00
2022-12-18T11:05:32.464Z,103213.00
2022-12-18T11:15:55.555Z,103211.00
2022-12-18T11:26:17.342Z,103211.00
2022-12-18T11:36:44.009Z,103220.00
2022-12-18T11:47:12.007Z,103214.00
2022-12-18T11:57:43.021Z,103217.00
2022-12-18T12:08:32.733Z,103232.00
2022-12-18T12:19:10.007Z,103229.00
2022-12-18T12:29:43.722Z,103242.00
2022-12-18T12:40:40.941Z,103261.00
2022-12-18T12:50:50.504Z,103254.00
2022-12-18T13:01:23.568Z,103228.00
2022-12-18T13:12:05.058Z,103219.00
2022-12-18T13:22:53.613Z,103229.00
2022-12-18T13:34:24.342Z,103230.00
2022-12-18T13:44:40.671Z,103212.00
2022-12-18T13:55:07.150Z,103206.00
2022-12-18T14:05:33.183Z,103208.00
2022-12-18T14:15:55.813Z,103172.00
2022-12-18T14:26:28.164Z,103181.00
2022-12-18T14:36:57.390Z,103159.00
2022-12-18T14:47:20.650Z,103135.00
2022-12-18T14:57:44.326Z,103135.00
2022-12-18T15:08:36.683Z,103146.00
2022-12-18T15:18:58.773Z,103173.00
2022-12-18T15:29:23.774Z,103159.00
2022-12-18T15:39:45.379Z,103166.00
2022-12-18T15:50:09.108Z,103166.00
2022-12-18T16:00:30.939Z,103161.00
2022-12-18T16:10:53.991Z,103156.00
2022-12-18T16:21:15.299Z,103131.00
2022-12-18T16:31:39.153Z,103124.00
2022-12-18T16:42:02.690Z,103125.00
2022-12-18T16:52:30.264Z,103093.00
2022-12-18T17:02:52.237Z,103122.00
2022-12-18T17:13:15.190Z,103109.00
2022-12-18T17:23:37.943Z,103107.00
2022-12-18T17:34:02.948Z,103102.00
2022-12-18T17:44:25.104Z,103123.00
2022-12-18T17:54:48.448Z,103101.00
2022-12-18T18:05:11.867Z,103084.00
2022-12-18T18:15:36.924Z,103065.00
2022-12-18T18:26:04.116Z,103063.00
2022-12-18T18:36:27.173Z,103045.00
2022-12-18T18:46:51.102Z,103015.00
2022-12-18T18:57:20.783Z,103016.00
2022-12-18T19:07:43.001Z,102991.00
2022-12-18T19:18:07.887Z,102991.00
2022-12-18T19:28:29.573Z,102985.00
2022-12-18T19:38:53.774Z,102979.00
2022-12-18T19:49:18.311Z,102966.00
2022-12-18T19:59:41.681Z,102950.00
2022-12-18T20:10:09.097Z,102957.00
2022-12-18T20:20:32.374Z,102963.00
2022-12-18T20:31:00.289Z,102947.00
2022-12-18T20:41:24.296Z,102931.00
2022-12-18T20:51:46.015Z,102926.00
2022-12-18T21:02:11.525Z,102906.00
2022-12-18T21:12:40.310Z,102903.00
2022-12-18T21:23:16.023Z,102881.00
2022-12-18T21:33:38.443Z,102883.00
2022-12-18T21:44:07.863Z,102872.00
2022-12-18T21:54:30.779Z,102896.00
2022-12-18T22:04:54.105Z,102883.00
2022-12-18T22:15:21.196Z,102900.00
2022-12-18T22:25:44.983Z,102861.00
2022-12-18T22:36:07.468Z,102848.00
2022-12-18T22:46:31.942Z,102838.00
2022-12-18T22:56:53.728Z,102810.00
2022-12-18T23:07:18.593Z,102789.00
2022-12-18T23:17:40.546Z,102773.00
2022-12-18T23:28:03.700Z,102747.00
2022-12-18T23:38:25.107Z,102733.00
2022-12-18T23:48:48.218Z,102724.00
2022-12-18T23:59:10.217Z,102682.00
